Time;durP1;ratioP1;P1;durP2;ratioP2;P2;SDS_P1;SDS_P2;PMS_P1;PMS_P2;Temp;Humidity;BMP_temperature;BMP_pressure;BME280_temperature;BME280_humidity;BME280_pressure;Samples;Min_cycle;Max_cycle;Signal;HPM_P1;HPM_P2
2021/03/19 00:00:21;;;;;;;3.70;3.40;;;3.30;98.30;;;;;;4139045;28;20595;-81
2021/03/19 00:02:23;;;;;;;5.03;3.40;;;3.20;98.30;;;;;;4135507;28;20224;-81
2021/03/19 00:04:25;;;;;;;5.80;3.65;;;3.20;98.30;;;;;;4140276;28;20232;-81
2021/03/19 00:06:27;;;;;;;5.15;3.45;;;3.20;98.30;;;;;;4141185;28;20301;-81
2021/03/19 00:08:29;;;;;;;5.05;3.50;;;3.20;98.30;;;;;;4137900;28;20302;-82
2021/03/19 00:10:33;;;;;;;3.90;3.17;;;3.30;98.30;;;;;;4148514;28;20273;-82
2021/03/19 00:12:36;;;;;;;5.07;3.70;;;3.20;98.30;;;;;;4135781;28;20286;-81
2021/03/19 00:14:39;;;;;;;5.15;3.20;;;3.20;98.30;;;;;;4147474;28;20227;-81
2021/03/19 00:16:41;;;;;;;3.58;3.28;;;3.20;98.30;;;;;;4140018;28;20319;-82
2021/03/19 00:18:43;;;;;;;4.72;3.20;;;3.20;98.30;;;;;;4142326;28;20223;-81
2021/03/19 00:20:46;;;;;;;3.40;3.10;;;3.10;98.30;;;;;;4138373;28;20216;-81
2021/03/19 00:22:48;;;;;;;4.55;3.40;;;3.10;98.30;;;;;;4138057;28;20223;-81
2021/03/19 00:24:50;;;;;;;3.72;3.05;;;3.10;98.30;;;;;;4133127;28;20717;-81
2021/03/19 00:26:53;;;;;;;5.45;3.78;;;3.10;98.30;;;;;;4135260;28;20270;-81
2021/03/19 00:28:56;;;;;;;4.50;3.30;;;3.10;98.30;;;;;;4136514;28;20281;-81
2021/03/19 00:30:58;;;;;;;5.35;3.10;;;3.10;98.30;;;;;;4134430;28;20267;-81
2021/03/19 00:33:00;;;;;;;3.78;3.38;;;3.10;98.30;;;;;;4143663;28;20230;-81
2021/03/19 00:35:03;;;;;;;4.50;3.50;;;3.10;98.30;;;;;;4133351;28;20572;-81
2021/03/19 00:37:05;;;;;;;5.72;3.35;;;3.10;98.30;;;;;;4136657;28;20594;-81
2021/03/19 00:39:07;;;;;;;3.33;3.03;;;3.00;98.30;;;;;;4134544;28;20331;-82
2021/03/19 00:41:09;;;;;;;4.25;3.05;;;3.00;98.30;;;;;;4140599;28;20652;-82
2021/03/19 00:43:13;;;;;;;4.82;3.83;;;3.10;98.30;;;;;;4143951;28;20289;-81
2021/03/19 00:45:18;;;;;;;4.38;3.85;;;3.10;98.30;;;;;;4144883;28;20238;-81
2021/03/19 00:47:23;;;;;;;8.35;4.25;;;3.10;98.30;;;;;;4144660;28;20238;-81
2021/03/19 00:49:25;;;;;;;4.35;3.40;;;3.10;98.30;;;;;;4143936;28;20235;-81
2021/03/19 00:51:27;;;;;;;4.15;3.75;;;3.10;98.30;;;;;;4145767;28;20650;-81
2021/03/19 00:53:30;;;;;;;4.95;3.33;;;3.10;98.30;;;;;;4143749;28;20651;-81
2021/03/19 00:55:32;;;;;;;4.28;3.70;;;3.10;98.30;;;;;;4138442;28;20323;-82
2021/03/19 00:57:34;;;;;;;7.13;3.40;;;3.10;98.30;;;;;;4138117;28;20246;-82
2021/03/19 00:59:36;;;;;;;5.22;3.60;;;3.10;98.30;;;;;;4135551;28;20267;-82
2021/03/19 01:01:39;;;;;;;4.40;3.42;;;3.10;98.30;;;;;;4135496;28;20240;-81
2021/03/19 01:03:41;;;;;;;5.50;3.60;;;3.10;98.30;;;;;;4140781;28;20263;-81
2021/03/19 01:05:45;;;;;;;4.68;3.17;;;3.00;98.30;;;;;;4139865;28;20254;-81
2021/03/19 01:07:48;;;;;;;7.03;3.60;;;3.00;98.30;;;;;;4138127;28;20331;-81
2021/03/19 01:09:50;;;;;;;4.40;3.28;;;3.10;98.30;;;;;;4140082;28;20235;-81
2021/03/19 01:11:52;;;;;;;3.47;3.17;;;3.10;98.30;;;;;;4139629;28;20690;-81
2021/03/19 01:13:54;;;;;;;6.35;3.60;;;3.10;98.30;;;;;;4143130;28;20235;-82
2021/03/19 01:15:57;;;;;;;3.67;3.28;;;3.10;98.30;;;;;;4137491;28;20643;-81
2021/03/19 01:18:00;;;;;;;6.10;3.70;;;3.10;98.30;;;;;;4139626;28;20557;-82
2021/03/19 01:20:07;;;;;;;4.25;3.45;;;3.10;98.30;;;;;;4139008;28;20789;-82
2021/03/19 01:22:09;;;;;;;5.70;4.15;;;3.00;98.30;;;;;;4145359;28;20305;-82
2021/03/19 01:24:12;;;;;;;5.45;3.90;;;3.00;98.30;;;;;;4136948;28;20729;-82
2021/03/19 01:26:14;;;;;;;4.15;3.75;;;3.00;98.30;;;;;;4138290;28;20261;-82
2021/03/19 01:28:17;;;;;;;5.20;3.95;;;3.00;98.30;;;;;;4136442;28;20232;-81
2021/03/19 01:30:22;;;;;;;5.10;4.10;;;2.90;98.30;;;;;;4140139;28;20323;-81
2021/03/19 01:32:24;;;;;;;6.22;4.30;;;3.00;98.30;;;;;;4138505;28;20230;-82
2021/03/19 01:34:27;;;;;;;5.40;3.55;;;2.90;98.30;;;;;;4135373;28;20282;-81
2021/03/19 01:36:29;;;;;;;6.05;3.75;;;3.00;98.30;;;;;;4138400;28;20235;-82
2021/03/19 01:38:32;;;;;;;3.67;3.25;;;3.00;98.30;;;;;;4140207;28;20274;-82
2021/03/19 01:40:36;;;;;;;4.45;3.40;;;3.00;98.30;;;;;;4132561;28;20239;-82
2021/03/19 01:42:39;;;;;;;4.75;3.72;;;3.00;98.30;;;;;;4142528;28;20623;-81
2021/03/19 01:44:58;;;;;;;5.28;4.10;;;3.00;98.30;;;;;;4142281;28;20293;-82
2021/03/19 01:47:37;;;;;;;5.88;3.65;;;3.00;98.30;;;;;;4134255;28;20251;-82
2021/03/19 01:50:17;;;;;;;4.95;3.83;;;3.00;98.30;;;;;;4133971;28;20223;-81
2021/03/19 01:52:57;;;;;;;4.65;4.00;;;3.00;98.30;;;;;;4132597;28;20814;-81
2021/03/19 01:55:36;;;;;;;4.00;3.55;;;3.00;98.30;;;;;;4132148;28;20223;-81
2021/03/19 01:58:16;;;;;;;4.55;3.45;;;3.00;98.30;;;;;;4132561;28;20227;-81
2021/03/19 02:00:55;;;;;;;5.28;3.80;;;2.90;98.30;;;;;;4141036;28;20239;-81
2021/03/19 02:03:35;;;;;;;5.32;3.60;;;2.80;98.30;;;;;;4131563;28;20251;-81
2021/03/19 02:06:14;;;;;;;5.63;4.15;;;2.80;98.30;;;;;;4140311;28;20604;-81
2021/03/19 02:08:53;;;;;;;5.18;4.25;;;2.80;98.30;;;;;;4137492;28;20742;-82
2021/03/19 02:11:51;;;;;;;6.45;3.85;;;2.80;98.30;;;;;;4139900;28;20297;-81
2021/03/19 02:14:30;;;;;;;5.28;3.92;;;2.80;98.30;;;;;;4132040;28;20227;-81
2021/03/19 02:17:09;;;;;;;6.15;4.00;;;2.80;98.30;;;;;;4131760;28;20282;-81
2021/03/19 02:19:49;;;;;;;4.57;3.67;;;2.80;98.30;;;;;;4131683;28;20716;-81
2021/03/19 02:22:28;;;;;;;4.10;3.47;;;2.70;98.30;;;;;;4131191;28;20584;-81
2021/03/19 02:25:08;;;;;;;4.63;3.80;;;2.70;98.30;;;;;;4131534;28;20232;-81
2021/03/19 02:27:48;;;;;;;4.97;3.83;;;2.60;98.30;;;;;;4131808;28;20265;-80
2021/03/19 02:30:27;;;;;;;5.38;3.80;;;2.60;98.30;;;;;;4131070;28;20316;-81
2021/03/19 02:32:30;;;;;;;4.72;3.90;;;2.70;98.30;;;;;;4139657;28;20281;-81
2021/03/19 02:34:37;;;;;;;4.45;3.53;;;2.70;98.30;;;;;;4136655;28;20227;-81
2021/03/19 02:36:39;;;;;;;4.80;4.30;;;2.70;98.30;;;;;;4141695;28;20259;-81
2021/03/19 02:38:41;;;;;;;4.25;3.38;;;2.70;98.30;;;;;;4132357;28;20299;-81
2021/03/19 02:40:43;;;;;;;3.63;3.33;;;2.70;98.30;;;;;;4134181;28;20297;-81
2021/03/19 02:42:46;;;;;;;4.57;3.53;;;2.60;98.30;;;;;;4138027;28;20227;-81
2021/03/19 02:44:49;;;;;;;4.82;4.20;;;2.60;98.30;;;;;;4138344;28;20263;-81
2021/03/19 02:46:51;;;;;;;6.20;4.00;;;2.60;98.30;;;;;;4136961;28;20282;-81
2021/03/19 02:48:54;;;;;;;5.90;3.75;;;2.60;98.30;;;;;;4136053;28;20236;-81
2021/03/19 02:50:56;;;;;;;5.45;4.32;;;2.60;98.30;;;;;;4135743;28;20228;-81
2021/03/19 02:52:58;;;;;;;4.18;3.78;;;2.60;98.30;;;;;;4138473;28;20286;-81
2021/03/19 02:55:00;;;;;;;5.40;4.03;;;2.50;98.30;;;;;;4137085;28;20231;-80
2021/03/19 02:57:02;;;;;;;5.28;3.40;;;2.50;98.30;;;;;;4138469;28;20627;-81
2021/03/19 02:59:04;;;;;;;4.63;3.90;;;2.50;98.30;;;;;;4141578;28;20314;-81
2021/03/19 03:01:07;;;;;;;5.35;3.60;;;2.50;98.30;;;;;;4136867;28;20680;-81
2021/03/19 03:03:09;;;;;;;6.15;4.40;;;2.40;98.30;;;;;;4140667;28;20254;-80
2021/03/19 03:05:13;;;;;;;5.78;4.10;;;2.40;98.30;;;;;;4136905;28;20240;-81
2021/03/19 03:07:24;;;;;;;6.90;4.50;;;2.40;98.30;;;;;;4134336;28;20270;-81
2021/03/19 03:09:28;;;;;;;7.15;4.38;;;2.40;98.30;;;;;;4130449;28;20267;-81
2021/03/19 03:11:31;;;;;;;4.88;3.95;;;2.40;98.30;;;;;;4134395;28;20242;-81
2021/03/19 03:13:34;;;;;;;5.10;4.10;;;2.30;98.30;;;;;;4133687;28;20270;-81
2021/03/19 03:15:37;;;;;;;5.35;4.10;;;2.30;98.30;;;;;;4138075;28;20253;-81
2021/03/19 03:17:39;;;;;;;5.18;4.40;;;2.30;98.30;;;;;;4136816;28;20282;-81
2021/03/19 03:19:42;;;;;;;5.20;4.47;;;2.30;98.30;;;;;;4132687;28;20282;-80
2021/03/19 03:21:45;;;;;;;6.60;4.90;;;2.30;98.30;;;;;;4131286;28;20236;-80
2021/03/19 03:23:47;;;;;;;5.95;4.88;;;2.30;98.30;;;;;;4141714;28;20234;-81
2021/03/19 03:25:50;;;;;;;6.30;4.43;;;2.30;98.30;;;;;;4140828;28;20304;-81
2021/03/19 03:27:52;;;;;;;5.13;4.63;;;2.30;98.30;;;;;;4141432;28;20259;-80
2021/03/19 03:29:54;;;;;;;7.03;4.95;;;2.40;98.30;;;;;;4135892;28;20228;-81
2021/03/19 03:31:57;;;;;;;5.75;5.15;;;2.30;98.30;;;;;;4133184;28;20710;-81
2021/03/19 03:34:00;;;;;;;5.15;4.70;;;2.20;98.30;;;;;;4136114;28;20230;-81
2021/03/19 03:36:04;;;;;;;4.97;4.40;;;2.20;98.30;;;;;;4134379;28;20235;-81
2021/03/19 03:38:10;;;;;;;5.60;5.10;;;2.20;98.30;;;;;;4131644;28;20359;-81
2021/03/19 03:40:15;;;;;;;6.82;4.90;;;2.20;98.30;;;;;;4133588;28;20234;-81
2021/03/19 03:42:17;;;;;;;9.07;5.38;;;2.20;98.30;;;;;;4133482;28;20319;-81
2021/03/19 03:44:20;;;;;;;7.90;5.28;;;2.10;98.30;;;;;;4135795;28;20603;-81
2021/03/19 03:46:25;;;;;;;7.57;5.72;;;2.10;98.30;;;;;;4137897;28;20239;-82
2021/03/19 03:48:30;;;;;;;8.25;5.45;;;2.10;98.30;;;;;;4140755;28;20382;-81
2021/03/19 03:50:33;;;;;;;7.05;5.25;;;2.20;98.30;;;;;;4141609;28;20584;-81
2021/03/19 03:52:40;;;;;;;7.00;6.10;;;2.20;98.30;;;;;;4138154;28;20219;-80
2021/03/19 03:54:43;;;;;;;6.35;5.68;;;2.20;98.30;;;;;;4136020;28;20231;-81
2021/03/19 03:56:46;;;;;;;7.50;6.03;;;2.20;98.30;;;;;;4133824;28;20239;-81
2021/03/19 03:58:48;;;;;;;8.13;6.85;;;2.20;98.30;;;;;;4136410;28;20227;-81
2021/03/19 04:00:52;;;;;;;7.50;6.28;;;2.20;98.30;;;;;;4141936;28;20239;-81
2021/03/19 04:02:54;;;;;;;6.55;5.85;;;2.10;98.30;;;;;;4133504;28;20315;-82
2021/03/19 04:04:57;;;;;;;8.95;7.68;;;2.10;98.30;;;;;;4133249;28;20337;-81
2021/03/19 04:06:59;;;;;;;7.38;6.20;;;2.10;98.30;;;;;;4136084;28;20231;-82
2021/03/19 04:09:00;;;;;;;8.40;6.95;;;2.10;98.30;;;;;;4138772;28;20322;-81
2021/03/19 04:11:08;;;;;;;8.93;6.50;;;2.10;98.30;;;;;;4137834;28;20350;-81
2021/03/19 04:13:11;;;;;;;7.75;6.45;;;2.20;98.30;;;;;;4133886;28;20236;-81
2021/03/19 04:15:15;;;;;;;9.15;7.30;;;2.10;98.30;;;;;;4131586;28;20228;-81
2021/03/19 04:17:25;;;;;;;11.10;8.07;;;2.10;98.30;;;;;;4136219;28;20993;-81
2021/03/19 04:19:28;;;;;;;8.15;7.05;;;2.00;98.30;;;;;;4133629;28;20305;-81
2021/03/19 04:21:29;;;;;;;7.88;6.97;;;2.00;98.30;;;;;;4131925;28;20681;-81
2021/03/19 04:23:32;;;;;;;11.57;7.60;;;2.10;98.30;;;;;;4139183;28;20264;-81
2021/03/19 04:25:34;;;;;;;8.80;7.22;;;2.00;98.30;;;;;;4131594;28;20240;-81
2021/03/19 04:27:42;;;;;;;8.73;7.10;;;2.10;98.30;;;;;;4134732;28;20310;-81
2021/03/19 04:29:45;;;;;;;9.15;7.20;;;2.20;98.30;;;;;;4140764;28;20657;-81
2021/03/19 04:31:47;;;;;;;9.90;8.90;;;2.20;98.30;;;;;;4133584;28;20657;-81
2021/03/19 04:33:50;;;;;;;9.40;6.60;;;2.20;98.30;;;;;;4134472;28;20319;-81
2021/03/19 04:35:54;;;;;;;8.70;7.30;;;2.30;98.30;;;;;;4133559;28;20228;-81
2021/03/19 04:38:00;;;;;;;7.55;6.47;;;2.30;98.30;;;;;;4135070;28;20224;-81
2021/03/19 04:40:04;;;;;;;8.02;6.90;;;2.30;98.30;;;;;;4138697;28;20838;-81
2021/03/19 04:42:07;;;;;;;8.43;7.55;;;2.30;98.30;;;;;;4137898;28;20278;-81
2021/03/19 04:44:09;;;;;;;32.65;22.55;;;2.20;98.30;;;;;;4137881;28;20258;-81
2021/03/19 04:46:11;;;;;;;90.97;55.58;;;2.30;98.30;;;;;;4142870;28;20724;-81
2021/03/19 04:48:14;;;;;;;124.07;82.30;;;2.30;98.30;;;;;;4140560;28;20260;-81
2021/03/19 04:50:17;;;;;;;37.10;24.70;;;2.30;98.30;;;;;;4138027;28;20255;-81
2021/03/19 04:52:19;;;;;;;14.60;9.05;;;2.30;98.30;;;;;;4143937;28;20231;-81
2021/03/19 04:54:21;;;;;;;11.93;7.65;;;2.20;98.30;;;;;;4139067;28;20323;-81
2021/03/19 04:56:23;;;;;;;141.80;79.13;;;2.20;98.30;;;;;;4137731;28;20228;-82
2021/03/19 04:58:25;;;;;;;119.57;68.72;;;2.10;98.30;;;;;;4143143;28;20746;-80
2021/03/19 05:00:28;;;;;;;94.03;54.15;;;2.10;98.30;;;;;;4144096;28;20231;-81
2021/03/19 05:02:32;;;;;;;57.20;35.63;;;2.00;98.30;;;;;;4141083;28;20316;-81
2021/03/19 05:04:35;;;;;;;21.08;14.52;;;2.00;98.30;;;;;;4140265;28;20235;-81
2021/03/19 05:06:37;;;;;;;10.45;8.77;;;2.00;98.30;;;;;;4138096;28;20234;-80
2021/03/19 05:08:39;;;;;;;8.70;7.68;;;2.00;98.30;;;;;;4142941;28;20770;-80
2021/03/19 05:10:41;;;;;;;10.68;8.10;;;2.00;98.30;;;;;;4133320;28;20766;-81
2021/03/19 05:12:43;;;;;;;15.27;8.45;;;2.00;98.30;;;;;;4133486;28;20252;-81
2021/03/19 05:14:45;;;;;;;12.43;8.77;;;2.00;98.30;;;;;;4136562;28;20235;-82
2021/03/19 05:16:48;;;;;;;9.55;8.43;;;2.00;98.30;;;;;;4137666;28;20327;-81
2021/03/19 05:18:50;;;;;;;25.48;16.30;;;2.00;98.30;;;;;;4137780;28;20642;-81
2021/03/19 05:20:54;;;;;;;96.40;58.90;;;1.90;98.30;;;;;;4134718;28;20780;-81
2021/03/19 05:22:56;;;;;;;217.07;124.35;;;1.90;98.30;;;;;;4134116;28;20937;-81
2021/03/19 05:24:58;;;;;;;30.83;22.25;;;2.00;98.30;;;;;;4136897;28;20601;-82
2021/03/19 05:27:01;;;;;;;14.25;11.10;;;2.00;98.30;;;;;;4137243;28;20414;-82
2021/03/19 05:29:03;;;;;;;14.23;9.63;;;2.00;98.30;;;;;;4139017;28;20402;-81
2021/03/19 05:31:05;;;;;;;14.25;9.00;;;2.10;98.30;;;;;;4140460;28;20235;-81
2021/03/19 05:33:10;;;;;;;13.35;9.65;;;2.10;98.30;;;;;;4137759;28;20235;-81
2021/03/19 05:35:16;;;;;;;14.57;8.93;;;2.10;98.30;;;;;;4143070;28;20297;-81
2021/03/19 05:37:23;;;;;;;9.98;8.75;;;2.10;98.30;;;;;;4140646;28;20696;-82
2021/03/19 05:39:26;;;;;;;13.77;8.80;;;2.10;98.30;;;;;;4141195;28;20228;-81
2021/03/19 05:41:31;;;;;;;12.13;9.50;;;2.20;98.30;;;;;;4140851;28;20228;-80
2021/03/19 05:43:37;;;;;;;10.55;8.57;;;2.20;98.30;;;;;;4148090;28;20223;-80
2021/03/19 05:45:39;;;;;;;12.48;9.63;;;2.20;98.30;;;;;;4147158;28;20590;-81
2021/03/19 05:47:42;;;;;;;12.57;9.20;;;2.20;98.30;;;;;;4146254;28;20230;-82
2021/03/19 05:49:45;;;;;;;10.57;8.77;;;2.20;98.30;;;;;;4145619;28;20613;-82
2021/03/19 05:51:50;;;;;;;12.55;8.65;;;2.20;98.30;;;;;;4143585;28;20230;-81
2021/03/19 05:54:20;;;;;;;9.90;8.80;;;2.30;98.30;;;;;;4142222;28;20233;-82
2021/03/19 05:56:25;;;;;;;10.38;9.20;;;2.30;98.30;;;;;;4142937;28;20310;-82
2021/03/19 05:58:30;;;;;;;10.35;9.05;;;2.30;98.30;;;;;;4137589;28;20239;-82
2021/03/19 06:00:32;;;;;;;10.90;9.10;;;2.30;98.30;;;;;;4141410;28;20276;-81
2021/03/19 06:02:37;;;;;;;13.00;9.23;;;2.30;98.30;;;;;;4143395;28;20235;-81
2021/03/19 06:04:40;;;;;;;12.13;8.60;;;2.30;98.30;;;;;;4141641;28;20232;-81
2021/03/19 06:06:52;;;;;;;13.95;11.20;;;2.30;98.30;;;;;;4139975;28;20228;-81
2021/03/19 06:08:54;;;;;;;16.70;13.43;;;2.30;98.30;;;;;;4136515;28;20255;-82
2021/03/19 06:11:08;;;;;;;21.08;12.75;;;2.40;98.30;;;;;;4143974;28;20246;-82
2021/03/19 06:13:17;;;;;;;16.50;11.60;;;2.40;98.30;;;;;;4139690;28;20601;-81
2021/03/19 06:15:28;;;;;;;11.25;10.07;;;2.40;98.30;;;;;;4143368;28;20234;-81
2021/03/19 06:17:42;;;;;;;12.55;9.45;;;2.40;98.30;;;;;;4139713;28;20243;-81
2021/03/19 06:19:52;;;;;;;13.68;9.93;;;2.40;98.30;;;;;;4140519;28;20242;-82
2021/03/19 06:22:16;;;;;;;10.65;9.30;;;2.50;98.30;;;;;;4144274;28;20232;-82
2021/03/19 06:24:30;;;;;;;10.70;9.35;;;2.50;98.30;;;;;;4139865;28;20814;-81
2021/03/19 06:26:36;;;;;;;12.35;9.60;;;2.60;98.30;;;;;;4143371;28;20231;-82
2021/03/19 06:28:40;;;;;;;13.20;9.95;;;2.60;98.30;;;;;;4140117;28;20591;-81
2021/03/19 06:30:43;;;;;;;13.40;9.52;;;2.60;98.30;;;;;;4140488;28;20258;-82
2021/03/19 06:33:04;;;;;;;12.65;9.75;;;2.60;98.30;;;;;;4141482;28;20326;-82
2021/03/19 06:35:20;;;;;;;12.82;10.20;;;2.60;98.30;;;;;;4143962;28;20227;-81
2021/03/19 06:37:32;;;;;;;11.23;9.13;;;2.60;98.30;;;;;;4142176;28;20319;-82
2021/03/19 06:39:47;;;;;;;11.93;9.73;;;2.80;98.30;;;;;;4143581;28;20227;-81
2021/03/19 06:42:06;;;;;;;13.15;9.82;;;2.80;98.30;;;;;;4143634;28;20236;-82
2021/03/19 06:44:18;;;;;;;10.48;8.95;;;2.90;98.30;;;;;;4150990;28;20302;-81
2021/03/19 06:46:26;;;;;;;13.88;9.80;;;2.90;98.30;;;;;;4151264;28;20253;-81
2021/03/19 06:48:33;;;;;;;11.15;9.52;;;2.90;98.30;;;;;;4143567;28;20230;-82
2021/03/19 06:50:39;;;;;;;12.65;9.65;;;3.00;98.30;;;;;;4142048;28;20235;-82
2021/03/19 06:52:42;;;;;;;11.48;9.80;;;3.00;98.30;;;;;;4141598;28;20220;-82
2021/03/19 06:54:58;;;;;;;9.85;8.82;;;3.00;98.30;;;;;;4142354;28;20244;-81
2021/03/19 06:57:04;;;;;;;12.02;9.18;;;3.10;98.30;;;;;;4139918;28;20240;-81
2021/03/19 06:59:22;;;;;;;12.00;10.45;;;3.20;98.30;;;;;;4144104;28;20231;-82
2021/03/19 07:01:33;;;;;;;11.07;9.27;;;3.30;98.30;;;;;;4143578;28;20334;-81
2021/03/19 07:03:52;;;;;;;11.52;8.90;;;3.30;98.30;;;;;;4138222;28;20306;-82
2021/03/19 07:06:22;;;;;;;15.32;9.55;;;3.30;98.30;;;;;;4139980;28;20250;-81
2021/03/19 07:08:36;;;;;;;11.88;9.40;;;3.40;98.30;;;;;;4142181;28;20699;-82
2021/03/19 07:10:48;;;;;;;12.15;9.30;;;3.40;98.30;;;;;;4141617;28;20227;-82
2021/03/19 07:12:58;;;;;;;15.15;9.70;;;3.50;98.30;;;;;;4141836;28;20238;-81
2021/03/19 07:15:20;;;;;;;16.02;9.85;;;3.60;98.30;;;;;;4141823;28;20246;-82
2021/03/19 07:17:55;;;;;;;14.15;10.07;;;3.60;98.30;;;;;;4142879;28;20243;-82
2021/03/19 07:20:09;;;;;;;11.52;9.15;;;3.80;98.30;;;;;;4142247;28;20238;-82
2021/03/19 07:22:27;;;;;;;15.48;9.80;;;3.90;98.30;;;;;;4139943;28;20224;-82
2021/03/19 07:25:00;;;;;;;14.20;9.90;;;3.90;98.30;;;;;;4141028;28;20227;-82
2021/03/19 07:27:21;;;;;;;10.80;8.15;;;3.90;98.30;;;;;;4142729;28;20857;-82
2021/03/19 07:29:53;;;;;;;8.57;7.65;;;3.90;98.30;;;;;;4141061;28;20231;-81
2021/03/19 07:32:28;;;;;;;10.65;9.10;;;3.90;98.30;;;;;;4139279;28;20240;-82
2021/03/19 07:34:47;;;;;;;10.20;7.55;;;4.00;98.30;;;;;;4134305;28;20242;-81
2021/03/19 07:36:59;;;;;;;10.95;8.95;;;4.00;98.30;;;;;;4140569;28;20737;-81
2021/03/19 07:39:40;;;;;;;11.10;8.45;;;4.10;98.30;;;;;;4140564;28;20235;-82
2021/03/19 07:42:00;;;;;;;14.05;7.30;;;4.40;98.30;;;;;;4140777;28;20257;-82
2021/03/19 07:44:14;;;;;;;14.80;8.63;;;4.60;98.30;;;;;;4143082;28;20222;-82
2021/03/19 07:46:29;;;;;;;10.27;8.63;;;4.80;98.30;;;;;;4144430;28;20564;-81
2021/03/19 07:48:46;;;;;;;14.80;8.65;;;5.10;98.30;;;;;;4139035;28;20491;-82
2021/03/19 07:51:09;;;;;;;9.63;7.17;;;5.10;98.30;;;;;;4144171;28;20287;-81
2021/03/19 07:53:43;;;;;;;11.93;6.90;;;5.10;98.30;;;;;;4138438;28;20483;-82
2021/03/19 07:55:53;;;;;;;11.50;6.80;;;5.30;98.30;;;;;;4144119;28;20515;-82
2021/03/19 07:58:03;;;;;;;9.27;6.40;;;5.40;98.30;;;;;;4142355;28;20493;-82
2021/03/19 08:00:13;;;;;;;12.67;8.70;;;5.50;98.30;;;;;;4142857;28;20519;-82
2021/03/19 08:03:08;;;;;;;16.77;10.27;;;5.60;98.30;;;;;;4143783;28;20570;-82
2021/03/19 08:05:21;;;;;;;9.00;6.87;;;5.80;98.30;;;;;;4137690;28;20551;-81
2021/03/19 08:07:33;;;;;;;7.93;6.50;;;5.70;98.30;;;;;;4142693;28;20471;-82
2021/03/19 08:09:44;;;;;;;9.83;6.43;;;5.50;98.30;;;;;;4143305;28;20543;-81
2021/03/19 08:11:52;;;;;;;9.20;6.60;;;5.40;98.30;;;;;;4145075;28;20528;-81
2021/03/19 08:14:26;;;;;;;10.20;6.90;;;5.40;98.30;;;;;;4148793;28;20518;-80
2021/03/19 08:16:35;;;;;;;12.37;6.30;;;5.40;98.30;;;;;;4140730;28;20492;-80
2021/03/19 08:18:43;;;;;;;11.33;6.80;;;5.40;98.30;;;;;;4147217;28;20488;-81
2021/03/19 08:21:09;;;;;;;7.10;5.70;;;5.50;98.30;;;;;;4145207;28;20939;-80
2021/03/19 08:23:24;;;;;;;7.90;6.10;;;5.40;98.30;;;;;;4146926;28;20488;-81
2021/03/19 08:25:31;;;;;;;10.00;5.83;;;5.70;98.30;;;;;;4137979;28;20491;-81
2021/03/19 08:27:41;;;;;;;8.03;5.30;;;6.00;98.30;;;;;;4143438;28;20531;-80
2021/03/19 08:29:59;;;;;;;8.90;5.37;;;5.70;98.30;;;;;;4143456;28;20563;-80
2021/03/19 08:32:12;;;;;;;8.57;6.10;;;5.60;98.30;;;;;;4146585;28;20484;-80
2021/03/19 08:34:23;;;;;;;7.60;5.80;;;5.60;98.30;;;;;;4146733;28;20495;-80
2021/03/19 08:36:38;;;;;;;6.43;5.17;;;5.90;98.30;;;;;;4148161;28;21070;-81
2021/03/19 08:38:45;;;;;;;10.13;5.00;;;6.10;98.30;;;;;;4141518;28;20518;-81
2021/03/19 08:40:56;;;;;;;10.37;7.03;;;6.10;98.30;;;;;;4143456;28;20534;-81
2021/03/19 08:42:59;;;;;;;18.23;8.40;;;6.10;98.30;;;;;;4149385;28;20922;-80
2021/03/19 08:45:05;;;;;;;7.87;5.67;;;6.10;98.30;;;;;;4148604;28;20575;-82
2021/03/19 08:47:23;;;;;;;7.30;4.93;;;6.30;98.30;;;;;;4145765;28;20483;-82
2021/03/19 08:49:40;;;;;;;7.10;4.53;;;6.40;98.30;;;;;;4142032;28;20898;-81
2021/03/19 08:51:44;;;;;;;6.80;5.67;;;6.60;98.30;;;;;;4145443;28;20577;-81
2021/03/19 08:54:27;;;;;;;15.73;9.40;;;6.60;98.30;;;;;;4144571;28;20489;-81
2021/03/19 08:56:33;;;;;;;6.83;4.67;;;6.60;98.30;;;;;;4142684;28;20542;-81
2021/03/19 08:58:51;;;;;;;7.83;4.37;;;6.40;98.30;;;;;;4144113;28;20489;-81
2021/03/19 09:00:57;;;;;;;6.57;4.70;;;6.50;98.30;;;;;;4147429;28;20985;-81
2021/03/19 09:03:02;;;;;;;5.37;3.93;;;6.40;98.30;;;;;;4144212;28;20490;-81
2021/03/19 09:05:16;;;;;;;5.03;3.67;;;6.20;98.30;;;;;;4145790;28;20485;-81
2021/03/19 09:07:22;;;;;;;5.60;3.90;;;6.10;98.30;;;;;;4145937;28;20489;-81
2021/03/19 09:09:40;;;;;;;5.53;3.60;;;6.10;98.30;;;;;;4141181;28;20878;-80
2021/03/19 09:12:10;;;;;;;6.83;3.77;;;6.20;98.30;;;;;;4140789;28;20486;-81
2021/03/19 09:14:33;;;;;;;15.23;9.50;;;6.20;98.30;;;;;;4137610;28;20545;-81
2021/03/19 09:16:49;;;;;;;6.60;3.80;;;6.40;98.30;;;;;;4143248;28;20858;-82
2021/03/19 09:18:51;;;;;;;3.90;3.27;;;6.40;98.30;;;;;;4141554;28;20490;-81
2021/03/19 09:21:05;;;;;;;6.20;2.97;;;6.50;98.30;;;;;;4142695;28;20489;-82
2021/03/19 09:23:24;;;;;;;8.80;4.40;;;6.60;98.30;;;;;;4143753;28;20481;-81
2021/03/19 09:25:46;;;;;;;19.33;11.73;;;6.70;98.30;;;;;;4137262;28;20509;-82
2021/03/19 09:28:11;;;;;;;14.77;7.63;;;6.80;98.30;;;;;;4143355;28;20496;-82
2021/03/19 09:30:25;;;;;;;3.93;3.53;;;6.80;98.30;;;;;;4142838;28;20560;-82
2021/03/19 09:32:37;;;;;;;6.30;3.30;;;6.60;98.30;;;;;;4144665;28;20483;-82
2021/03/19 09:35:13;;;;;;;5.70;3.40;;;7.10;98.30;;;;;;4145859;28;21082;-82
2021/03/19 09:37:58;;;;;;;4.60;3.50;;;7.40;98.30;;;;;;4097299;28;20453;-82
2021/03/19 09:40:38;;;;;;;14.70;8.80;;;7.60;98.30;;;;;;4144982;28;20533;-82
2021/03/19 09:42:56;;;;;;;28.20;14.57;;;7.70;98.30;;;;;;4141461;28;20515;-82
2021/03/19 09:45:31;;;;;;;7.90;4.40;;;7.80;98.30;;;;;;4137452;28;20500;-82
2021/03/19 09:47:36;;;;;;;5.47;3.87;;;8.00;98.30;;;;;;4144422;28;20492;-82
2021/03/19 09:49:40;;;;;;;19.20;9.87;;;8.00;98.30;;;;;;4146005;28;20949;-82
2021/03/19 09:51:43;;;;;;;57.83;33.57;;;8.10;98.30;;;;;;4143641;28;20483;-82
2021/03/19 09:53:46;;;;;;;12.47;6.27;;;8.50;98.30;;;;;;4142721;28;21092;-82
2021/03/19 09:55:51;;;;;;;3.73;2.70;;;8.90;98.30;;;;;;4137138;28;20469;-81
2021/03/19 09:57:53;;;;;;;4.60;2.70;;;8.90;95.70;;;;;;4147833;28;20460;-82
2021/03/19 10:00:04;;;;;;;7.30;3.83;;;8.50;95.10;;;;;;4143898;28;20486;-81
2021/03/19 10:02:24;;;;;;;3.20;2.90;;;8.00;96.60;;;;;;4145515;28;20488;-82
2021/03/19 10:04:32;;;;;;;3.53;2.70;;;7.50;98.30;;;;;;4145292;28;20566;-82
2021/03/19 10:06:37;;;;;;;5.97;3.10;;;7.30;98.30;;;;;;4138917;28;20590;-83
2021/03/19 10:08:39;;;;;;;2.97;2.47;;;7.50;98.30;;;;;;4145480;28;20469;-81
2021/03/19 10:10:43;;;;;;;2.80;2.50;;;7.80;98.30;;;;;;4146719;28;20957;-82
2021/03/19 10:12:45;;;;;;;4.47;2.60;;;8.10;98.30;;;;;;4143172;28;20465;-81
2021/03/19 10:14:49;;;;;;;2.73;2.40;;;8.40;97.00;;;;;;4143772;28;20552;-80
2021/03/19 10:17:03;;;;;;;3.50;2.33;;;8.70;95.70;;;;;;4144251;28;20469;-81
2021/03/19 10:19:11;;;;;;;2.87;2.27;;;8.60;95.30;;;;;;4146398;28;20464;-81
2021/03/19 10:21:18;;;;;;;2.70;2.30;;;8.40;93.80;;;;;;4153113;28;20481;-81
2021/03/19 10:23:27;;;;;;;2.40;2.20;;;8.30;94.20;;;;;;4153349;28;20504;-80
2021/03/19 10:25:32;;;;;;;3.73;2.50;;;8.30;95.30;;;;;;4153099;28;20720;-80
2021/03/19 10:27:43;;;;;;;6.80;2.40;;;8.20;95.40;;;;;;4153366;28;20484;-81
2021/03/19 10:29:50;;;;;;;2.30;2.10;;;8.30;94.30;;;;;;4151275;28;20505;-81
2021/03/19 10:31:57;;;;;;;3.33;2.50;;;8.50;93.90;;;;;;4152217;28;20497;-81
2021/03/19 10:34:03;;;;;;;3.60;2.70;;;9.00;93.50;;;;;;4152687;28;20517;-80
2021/03/19 10:36:08;;;;;;;2.43;2.20;;;8.60;92.70;;;;;;4144684;28;20483;-81
2021/03/19 10:38:19;;;;;;;3.93;2.47;;;8.20;94.60;;;;;;4137002;28;20503;-81
2021/03/19 10:40:29;;;;;;;2.93;2.50;;;8.00;96.30;;;;;;4140974;28;20458;-81
2021/03/19 10:42:38;;;;;;;4.40;2.90;;;7.60;98.10;;;;;;4144194;28;20464;-81
2021/03/19 10:44:52;;;;;;;4.50;2.57;;;7.30;98.30;;;;;;4147211;28;20499;-81
2021/03/19 10:47:00;;;;;;;2.40;2.20;;;7.80;98.30;;;;;;4144576;28;20526;-81
2021/03/19 10:49:15;;;;;;;3.80;2.10;;;8.20;97.10;;;;;;4146384;28;20465;-82
2021/03/19 10:51:33;;;;;;;4.40;2.50;;;8.70;95.20;;;;;;4136384;28;20468;-81
2021/03/19 10:53:54;;;;;;;10.80;6.60;;;8.90;93.00;;;;;;4142331;28;20831;-81
2021/03/19 10:56:07;;;;;;;15.13;9.63;;;9.20;92.40;;;;;;4143120;28;20525;-82
2021/03/19 10:58:26;;;;;;;4.70;3.27;;;9.50;91.50;;;;;;4145133;28;20521;-82
2021/03/19 11:00:35;;;;;;;3.00;2.27;;;9.10;90.20;;;;;;4140793;28;20489;-82
2021/03/19 11:02:38;;;;;;;3.00;2.37;;;8.90;90.10;;;;;;4143697;28;21007;-81
2021/03/19 11:04:43;;;;;;;3.73;2.60;;;8.60;91.00;;;;;;4141482;28;20487;-80
2021/03/19 11:06:45;;;;;;;3.33;2.50;;;8.20;92.30;;;;;;4138194;28;20532;-80
2021/03/19 11:09:08;;;;;;;4.30;2.50;;;8.00;93.20;;;;;;4138904;28;20577;-80
2021/03/19 11:11:10;;;;;;;4.07;2.70;;;8.80;92.60;;;;;;4138800;28;20521;-80
2021/03/19 11:13:22;;;;;;;3.00;2.70;;;9.50;91.00;;;;;;4139018;28;21049;-81
2021/03/19 11:15:38;;;;;;;4.93;2.90;;;9.60;90.40;;;;;;4135413;28;20517;-80
2021/03/19 11:17:41;;;;;;;4.40;2.90;;;9.70;89.80;;;;;;4141027;28;20489;-80
2021/03/19 11:19:59;;;;;;;2.53;2.13;;;10.00;89.70;;;;;;4142277;28;20487;-80
2021/03/19 11:22:05;;;;;;;3.20;2.40;;;10.30;87.30;;;;;;4136014;28;20489;-81